sensor_id;sensor_type;location;lat;lon;timestamp;temperature;humidity
51811;DHT22;52468;40.116;18.296;2023-06-14T00:02:05;20.70;82.00
51811;DHT22;52468;40.116;18.296;2023-06-14T00:04:36;20.70;81.80
51811;DHT22;52468;40.116;18.296;2023-06-14T00:07:05;20.70;81.90
51811;DHT22;52468;40.116;18.296;2023-06-14T00:09:35;20.70;82.00
51811;DHT22;52468;40.116;18.296;2023-06-14T00:12:04;20.60;82.00
51811;DHT22;52468;40.116;18.296;2023-06-14T00:14:31;20.60;82.10
51811;DHT22;52468;40.116;18.296;2023-06-14T00:16:59;20.60;82.00
51811;DHT22;52468;40.116;18.296;2023-06-14T00:19:27;20.60;82.10
51811;DHT22;52468;40.116;18.296;2023-06-14T00:21:56;20.60;82.30
51811;DHT22;52468;40.116;18.296;2023-06-14T00:24:25;20.60;82.20
51811;DHT22;52468;40.116;18.296;2023-06-14T00:26:53;20.50;82.30
51811;DHT22;52468;40.116;18.296;2023-06-14T00:29:23;20.50;82.30
51811;DHT22;52468;40.116;18.296;2023-06-14T00:31:50;20.50;82.40
51811;DHT22;52468;40.116;18.296;2023-06-14T00:34:18;20.50;82.50
51811;DHT22;52468;40.116;18.296;2023-06-14T00:36:46;20.50;82.50
51811;DHT22;52468;40.116;18.296;2023-06-14T00:39:14;20.50;82.60
51811;DHT22;52468;40.116;18.296;2023-06-14T00:41:42;20.50;82.70
51811;DHT22;52468;40.116;18.296;2023-06-14T00:44:11;20.50;82.60
51811;DHT22;52468;40.116;18.296;2023-06-14T00:46:41;20.50;83.00
51811;DHT22;52468;40.116;18.296;2023-06-14T00:49:09;20.50;82.90
51811;DHT22;52468;40.116;18.296;2023-06-14T00:51:38;20.50;82.70
51811;DHT22;52468;40.116;18.296;2023-06-14T00:54:07;20.50;82.80
51811;DHT22;52468;40.116;18.296;2023-06-14T00:56:37;20.50;82.80
51811;DHT22;52468;40.116;18.296;2023-06-14T00:59:06;20.50;82.90
51811;DHT22;52468;40.116;18.296;2023-06-14T01:01:34;20.50;82.90
51811;DHT22;52468;40.116;18.296;2023-06-14T01:04:02;20.40;83.00
51811;DHT22;52468;40.116;18.296;2023-06-14T01:09:33;20.40;83.10
51811;DHT22;52468;40.116;18.296;2023-06-14T01:12:13;20.40;83.00
51811;DHT22;52468;40.116;18.296;2023-06-14T01:14:44;20.40;82.90
51811;DHT22;52468;40.116;18.296;2023-06-14T01:17:12;20.30;83.10
51811;DHT22;52468;40.116;18.296;2023-06-14T01:19:45;20.40;83.40
51811;DHT22;52468;40.116;18.296;2023-06-14T01:22:14;20.40;83.50
51811;DHT22;52468;40.116;18.296;2023-06-14T01:24:42;20.40;83.30
51811;DHT22;52468;40.116;18.296;2023-06-14T01:27:13;20.40;83.20
51811;DHT22;52468;40.116;18.296;2023-06-14T01:29:43;20.40;83.10
51811;DHT22;52468;40.116;18.296;2023-06-14T01:32:15;20.50;83.00
51811;DHT22;52468;40.116;18.296;2023-06-14T01:34:43;20.40;83.10
51811;DHT22;52468;40.116;18.296;2023-06-14T01:37:12;20.40;83.00
51811;DHT22;52468;40.116;18.296;2023-06-14T01:39:42;20.40;83.10
51811;DHT22;52468;40.116;18.296;2023-06-14T01:42:12;20.40;83.20
51811;DHT22;52468;40.116;18.296;2023-06-14T01:44:42;20.40;83.30
51811;DHT22;52468;40.116;18.296;2023-06-14T01:47:12;20.40;83.40
51811;DHT22;52468;40.116;18.296;2023-06-14T01:49:41;20.40;83.30
51811;DHT22;52468;40.116;18.296;2023-06-14T01:52:09;20.30;83.30
51811;DHT22;52468;40.116;18.296;2023-06-14T01:54:37;20.30;83.40
51811;DHT22;52468;40.116;18.296;2023-06-14T01:57:09;20.20;83.40
51811;DHT22;52468;40.116;18.296;2023-06-14T01:59:38;20.20;83.40
51811;DHT22;52468;40.116;18.296;2023-06-14T02:02:06;20.20;83.50
51811;DHT22;52468;40.116;18.296;2023-06-14T02:04:34;20.20;83.40
51811;DHT22;52468;40.116;18.296;2023-06-14T02:07:02;20.30;83.40
51811;DHT22;52468;40.116;18.296;2023-06-14T02:09:30;20.30;83.40
51811;DHT22;52468;40.116;18.296;2023-06-14T02:11:57;20.30;83.40
51811;DHT22;52468;40.116;18.296;2023-06-14T02:14:27;20.20;83.60
51811;DHT22;52468;40.116;18.296;2023-06-14T02:16:55;20.20;83.50
51811;DHT22;52468;40.116;18.296;2023-06-14T02:19:24;20.20;83.50
51811;DHT22;52468;40.116;18.296;2023-06-14T02:21:53;20.20;83.50
51811;DHT22;52468;40.116;18.296;2023-06-14T02:24:20;20.20;83.40
51811;DHT22;52468;40.116;18.296;2023-06-14T02:26:49;20.10;83.40
51811;DHT22;52468;40.116;18.296;2023-06-14T02:29:17;20.10;83.50
51811;DHT22;52468;40.116;18.296;2023-06-14T02:31:44;20.10;83.60
51811;DHT22;52468;40.116;18.296;2023-06-14T02:34:14;20.10;83.50
51811;DHT22;52468;40.116;18.296;2023-06-14T02:36:47;20.00;83.60
51811;DHT22;52468;40.116;18.296;2023-06-14T02:39:15;20.00;83.60
51811;DHT22;52468;40.116;18.296;2023-06-14T02:41:44;20.00;83.50
51811;DHT22;52468;40.116;18.296;2023-06-14T02:44:14;20.00;83.60
51811;DHT22;52468;40.116;18.296;2023-06-14T02:46:42;20.00;83.50
51811;DHT22;52468;40.116;18.296;2023-06-14T02:49:11;20.00;83.70
51811;DHT22;52468;40.116;18.296;2023-06-14T02:51:39;20.00;83.80
51811;DHT22;52468;40.116;18.296;2023-06-14T02:54:08;20.00;84.20
51811;DHT22;52468;40.116;18.296;2023-06-14T02:56:39;20.00;84.30
51811;DHT22;52468;40.116;18.296;2023-06-14T02:59:09;20.00;84.20
51811;DHT22;52468;40.116;18.296;2023-06-14T03:01:39;20.10;84.30
51811;DHT22;52468;40.116;18.296;2023-06-14T03:04:11;20.10;84.20
51811;DHT22;52468;40.116;18.296;2023-06-14T03:06:41;20.10;84.00
51811;DHT22;52468;40.116;18.296;2023-06-14T03:09:13;20.10;84.00
51811;DHT22;52468;40.116;18.296;2023-06-14T03:11:41;20.10;84.00
51811;DHT22;52468;40.116;18.296;2023-06-14T03:14:09;20.10;84.00
51811;DHT22;52468;40.116;18.296;2023-06-14T03:16:37;20.10;84.00
51811;DHT22;52468;40.116;18.296;2023-06-14T03:19:09;20.10;84.00
51811;DHT22;52468;40.116;18.296;2023-06-14T03:21:37;20.10;83.90
51811;DHT22;52468;40.116;18.296;2023-06-14T03:24:06;20.10;84.00
51811;DHT22;52468;40.116;18.296;2023-06-14T03:26:35;20.10;84.10
51811;DHT22;52468;40.116;18.296;2023-06-14T03:29:04;20.10;84.20
51811;DHT22;52468;40.116;18.296;2023-06-14T03:31:34;20.10;84.40
51811;DHT22;52468;40.116;18.296;2023-06-14T03:34:05;20.10;84.50
51811;DHT22;52468;40.116;18.296;2023-06-14T03:36:33;20.20;84.40
51811;DHT22;52468;40.116;18.296;2023-06-14T03:39:01;20.20;84.60
51811;DHT22;52468;40.116;18.296;2023-06-14T03:41:29;20.30;84.30
51811;DHT22;52468;40.116;18.296;2023-06-14T03:43:58;20.50;84.60
51811;DHT22;52468;40.116;18.296;2023-06-14T03:46:25;20.50;84.70
51811;DHT22;52468;40.116;18.296;2023-06-14T03:48:54;20.60;84.80
51811;DHT22;52468;40.116;18.296;2023-06-14T03:51:22;20.80;85.20
51811;DHT22;52468;40.116;18.296;2023-06-14T03:53:50;21.00;85.60
51811;DHT22;52468;40.116;18.296;2023-06-14T03:56:32;21.30;85.90
51811;DHT22;52468;40.116;18.296;2023-06-14T03:59:00;21.50;85.70
51811;DHT22;52468;40.116;18.296;2023-06-14T04:01:29;21.70;86.20
51811;DHT22;52468;40.116;18.296;2023-06-14T04:04:00;21.80;86.40
51811;DHT22;52468;40.116;18.296;2023-06-14T04:06:28;22.00;86.70
51811;DHT22;52468;40.116;18.296;2023-06-14T04:09:00;22.10;86.60
51811;DHT22;52468;40.116;18.296;2023-06-14T04:11:32;22.30;87.20
51811;DHT22;52468;40.116;18.296;2023-06-14T04:14:02;22.50;87.20
51811;DHT22;52468;40.116;18.296;2023-06-14T04:16:30;22.60;87.40
51811;DHT22;52468;40.116;18.296;2023-06-14T04:19:00;22.80;87.70
51811;DHT22;52468;40.116;18.296;2023-06-14T04:21:28;23.00;88.00
51811;DHT22;52468;40.116;18.296;2023-06-14T04:23:59;23.20;87.90
51811;DHT22;52468;40.116;18.296;2023-06-14T04:26:31;23.40;87.90
51811;DHT22;52468;40.116;18.296;2023-06-14T04:29:01;23.60;88.00
51811;DHT22;52468;40.116;18.296;2023-06-14T04:31:32;23.80;87.90
51811;DHT22;52468;40.116;18.296;2023-06-14T04:34:02;24.00;87.40
51811;DHT22;52468;40.116;18.296;2023-06-14T04:36:35;24.10;87.40
51811;DHT22;52468;40.116;18.296;2023-06-14T04:39:06;24.10;87.00
51811;DHT22;52468;40.116;18.296;2023-06-14T04:41:34;24.40;87.40
51811;DHT22;52468;40.116;18.296;2023-06-14T04:44:03;24.60;87.00
51811;DHT22;52468;40.116;18.296;2023-06-14T04:46:37;24.80;86.70
51811;DHT22;52468;40.116;18.296;2023-06-14T04:49:18;25.00;85.50
51811;DHT22;52468;40.116;18.296;2023-06-14T04:51:45;25.00;84.70
51811;DHT22;52468;40.116;18.296;2023-06-14T04:54:14;25.00;82.50
51811;DHT22;52468;40.116;18.296;2023-06-14T04:56:43;25.00;80.80
51811;DHT22;52468;40.116;18.296;2023-06-14T04:59:12;25.10;79.20
51811;DHT22;52468;40.116;18.296;2023-06-14T05:01:41;25.10;78.20
51811;DHT22;52468;40.116;18.296;2023-06-14T05:04:09;25.20;76.80
51811;DHT22;52468;40.116;18.296;2023-06-14T05:06:37;25.30;75.40
51811;DHT22;52468;40.116;18.296;2023-06-14T05:09:05;25.50;74.10
51811;DHT22;52468;40.116;18.296;2023-06-14T05:11:33;25.70;73.00
51811;DHT22;52468;40.116;18.296;2023-06-14T05:14:01;25.60;72.50
51811;DHT22;52468;40.116;18.296;2023-06-14T05:16:29;25.50;72.50
51811;DHT22;52468;40.116;18.296;2023-06-14T05:18:57;25.50;72.50
51811;DHT22;52468;40.116;18.296;2023-06-14T05:21:27;25.80;72.00
51811;DHT22;52468;40.116;18.296;2023-06-14T05:23:55;26.00;71.30
51811;DHT22;52468;40.116;18.296;2023-06-14T05:26:23;26.10;70.70
51811;DHT22;52468;40.116;18.296;2023-06-14T05:28:56;26.20;70.30
51811;DHT22;52468;40.116;18.296;2023-06-14T05:31:24;26.30;70.30
51811;DHT22;52468;40.116;18.296;2023-06-14T05:33:53;26.40;70.30
51811;DHT22;52468;40.116;18.296;2023-06-14T05:36:21;26.40;70.40
51811;DHT22;52468;40.116;18.296;2023-06-14T05:38:50;26.40;70.20
51811;DHT22;52468;40.116;18.296;2023-06-14T05:41:26;26.50;70.00
51811;DHT22;52468;40.116;18.296;2023-06-14T05:43:55;26.50;69.80
51811;DHT22;52468;40.116;18.296;2023-06-14T05:46:24;26.50;70.40
51811;DHT22;52468;40.116;18.296;2023-06-14T05:48:55;26.60;70.00
51811;DHT22;52468;40.116;18.296;2023-06-14T05:51:23;26.70;69.70
51811;DHT22;52468;40.116;18.296;2023-06-14T05:53:52;26.90;69.00
51811;DHT22;52468;40.116;18.296;2023-06-14T05:56:20;27.00;67.80
51811;DHT22;52468;40.116;18.296;2023-06-14T05:58:49;27.10;67.70
51811;DHT22;52468;40.116;18.296;2023-06-14T06:01:18;27.30;67.50
51811;DHT22;52468;40.116;18.296;2023-06-14T06:03:46;27.30;67.10
51811;DHT22;52468;40.116;18.296;2023-06-14T06:06:14;27.30;67.10
51811;DHT22;52468;40.116;18.296;2023-06-14T06:08:42;27.30;67.40
51811;DHT22;52468;40.116;18.296;2023-06-14T06:11:10;27.40;67.30
51811;DHT22;52468;40.116;18.296;2023-06-14T06:13:38;27.60;66.10
51811;DHT22;52468;40.116;18.296;2023-06-14T06:16:06;27.70;65.70
51811;DHT22;52468;40.116;18.296;2023-06-14T06:18:34;27.80;64.60
51811;DHT22;52468;40.116;18.296;2023-06-14T06:21:06;27.70;64.50
51811;DHT22;52468;40.116;18.296;2023-06-14T06:23:34;27.80;63.40
51811;DHT22;52468;40.116;18.296;2023-06-14T06:26:01;27.90;62.60
51811;DHT22;52468;40.116;18.296;2023-06-14T06:28:29;28.00;62.70
51811;DHT22;52468;40.116;18.296;2023-06-14T06:30:57;28.20;62.20
51811;DHT22;52468;40.116;18.296;2023-06-14T06:33:25;28.20;61.30
51811;DHT22;52468;40.116;18.296;2023-06-14T06:35:53;28.40;61.10
51811;DHT22;52468;40.116;18.296;2023-06-14T06:38:21;28.50;60.60
51811;DHT22;52468;40.116;18.296;2023-06-14T06:40:49;28.60;59.60
51811;DHT22;52468;40.116;18.296;2023-06-14T06:43:17;28.70;58.60
51811;DHT22;52468;40.116;18.296;2023-06-14T06:45:48;28.60;58.20
51811;DHT22;52468;40.116;18.296;2023-06-14T06:48:15;28.50;58.40
51811;DHT22;52468;40.116;18.296;2023-06-14T06:50:44;28.50;58.40
51811;DHT22;52468;40.116;18.296;2023-06-14T06:53:12;28.70;58.10
51811;DHT22;52468;40.116;18.296;2023-06-14T06:55:41;28.80;57.90
51811;DHT22;52468;40.116;18.296;2023-06-14T06:58:09;28.70;58.30
51811;DHT22;52468;40.116;18.296;2023-06-14T07:00:37;28.90;57.90
51811;DHT22;52468;40.116;18.296;2023-06-14T07:03:05;28.90;57.30
51811;DHT22;52468;40.116;18.296;2023-06-14T07:05:33;28.60;57.60
51811;DHT22;52468;40.116;18.296;2023-06-14T07:08:01;28.50;57.80
51811;DHT22;52468;40.116;18.296;2023-06-14T07:10:29;28.70;58.20
51811;DHT22;52468;40.116;18.296;2023-06-14T07:12:57;28.90;57.80
51811;DHT22;52468;40.116;18.296;2023-06-14T07:15:25;28.90;57.40
51811;DHT22;52468;40.116;18.296;2023-06-14T07:17:53;29.00;57.00
51811;DHT22;52468;40.116;18.296;2023-06-14T07:20:21;29.30;56.20
51811;DHT22;52468;40.116;18.296;2023-06-14T07:22:50;29.50;55.10
51811;DHT22;52468;40.116;18.296;2023-06-14T07:25:18;29.60;54.60
51811;DHT22;52468;40.116;18.296;2023-06-14T07:27:47;29.60;53.20
51811;DHT22;52468;40.116;18.296;2023-06-14T07:30:15;29.80;53.50
51811;DHT22;52468;40.116;18.296;2023-06-14T07:32:43;29.70;53.60
51811;DHT22;52468;40.116;18.296;2023-06-14T07:35:11;29.90;53.30
51811;DHT22;52468;40.116;18.296;2023-06-14T07:37:39;30.00;53.40
51811;DHT22;52468;40.116;18.296;2023-06-14T07:40:07;30.00;53.40
51811;DHT22;52468;40.116;18.296;2023-06-14T07:42:36;29.80;53.60
51811;DHT22;52468;40.116;18.296;2023-06-14T07:45:05;29.70;53.80
51811;DHT22;52468;40.116;18.296;2023-06-14T07:47:33;29.90;53.00
51811;DHT22;52468;40.116;18.296;2023-06-14T07:50:01;29.70;53.10
51811;DHT22;52468;40.116;18.296;2023-06-14T07:52:30;29.70;53.10
51811;DHT22;52468;40.116;18.296;2023-06-14T07:54:58;29.50;53.40
51811;DHT22;52468;40.116;18.296;2023-06-14T07:57:26;29.50;54.10
51811;DHT22;52468;40.116;18.296;2023-06-14T07:59:54;29.80;53.60
51811;DHT22;52468;40.116;18.296;2023-06-14T08:02:22;30.00;53.00
51811;DHT22;52468;40.116;18.296;2023-06-14T08:04:50;30.20;52.50
51811;DHT22;52468;40.116;18.296;2023-06-14T08:07:18;30.30;52.40
51811;DHT22;52468;40.116;18.296;2023-06-14T08:09:46;30.40;51.90
51811;DHT22;52468;40.116;18.296;2023-06-14T08:12:13;30.50;51.90
51811;DHT22;52468;40.116;18.296;2023-06-14T08:14:42;30.60;51.30
51811;DHT22;52468;40.116;18.296;2023-06-14T08:17:10;31.00;51.00
51811;DHT22;52468;40.116;18.296;2023-06-14T08:19:38;31.00;50.10
51811;DHT22;52468;40.116;18.296;2023-06-14T08:22:06;31.20;49.90
51811;DHT22;52468;40.116;18.296;2023-06-14T08:24:34;31.30;49.70
51811;DHT22;52468;40.116;18.296;2023-06-14T08:27:02;31.40;49.00
51811;DHT22;52468;40.116;18.296;2023-06-14T08:29:30;31.40;49.70
51811;DHT22;52468;40.116;18.296;2023-06-14T08:31:58;31.50;48.70
51811;DHT22;52468;40.116;18.296;2023-06-14T08:34:26;31.50;47.50
51811;DHT22;52468;40.116;18.296;2023-06-14T08:36:54;31.50;47.70
51811;DHT22;52468;40.116;18.296;2023-06-14T08:39:22;31.50;47.30
51811;DHT22;52468;40.116;18.296;2023-06-14T08:41:50;31.60;47.40
51811;DHT22;52468;40.116;18.296;2023-06-14T08:44:20;31.30;48.50
51811;DHT22;52468;40.116;18.296;2023-06-14T08:46:48;31.30;49.10
51811;DHT22;52468;40.116;18.296;2023-06-14T08:49:17;31.60;47.80
51811;DHT22;52468;40.116;18.296;2023-06-14T08:51:45;31.60;47.60
51811;DHT22;52468;40.116;18.296;2023-06-14T08:54:15;31.90;47.20
51811;DHT22;52468;40.116;18.296;2023-06-14T08:56:43;32.10;47.00
51811;DHT22;52468;40.116;18.296;2023-06-14T08:59:11;32.10;47.30
51811;DHT22;52468;40.116;18.296;2023-06-14T09:01:40;32.40;46.70
51811;DHT22;52468;40.116;18.296;2023-06-14T09:04:09;32.20;46.70
51811;DHT22;52468;40.116;18.296;2023-06-14T09:06:37;32.30;47.30
51811;DHT22;52468;40.116;18.296;2023-06-14T09:09:05;32.50;47.40
51811;DHT22;52468;40.116;18.296;2023-06-14T09:11:35;32.70;47.40
51811;DHT22;52468;40.116;18.296;2023-06-14T09:14:03;32.90;46.20
51811;DHT22;52468;40.116;18.296;2023-06-14T09:16:32;32.90;46.40
51811;DHT22;52468;40.116;18.296;2023-06-14T09:19:01;33.00;45.50
51811;DHT22;52468;40.116;18.296;2023-06-14T09:21:34;33.00;45.60
51811;DHT22;52468;40.116;18.296;2023-06-14T09:24:04;33.00;46.00
51811;DHT22;52468;40.116;18.296;2023-06-14T09:26:32;32.90;46.70
51811;DHT22;52468;40.116;18.296;2023-06-14T09:29:00;32.90;46.50
51811;DHT22;52468;40.116;18.296;2023-06-14T09:31:28;33.00;46.10
51811;DHT22;52468;40.116;18.296;2023-06-14T09:34:02;32.90;46.60
51811;DHT22;52468;40.116;18.296;2023-06-14T09:36:31;33.20;45.90
51811;DHT22;52468;40.116;18.296;2023-06-14T09:39:01;33.00;46.30
51811;DHT22;52468;40.116;18.296;2023-06-14T09:41:37;32.90;46.70
51811;DHT22;52468;40.116;18.296;2023-06-14T09:44:07;33.00;46.80
51811;DHT22;52468;40.116;18.296;2023-06-14T09:46:37;32.70;47.30
51811;DHT22;52468;40.116;18.296;2023-06-14T09:49:06;32.40;48.10
51811;DHT22;52468;40.116;18.296;2023-06-14T09:51:42;32.50;48.30
51811;DHT22;52468;40.116;18.296;2023-06-14T09:54:16;32.50;48.50
51811;DHT22;52468;40.116;18.296;2023-06-14T09:56:47;32.80;47.50
51811;DHT22;52468;40.116;18.296;2023-06-14T09:59:19;33.10;47.00
51811;DHT22;52468;40.116;18.296;2023-06-14T10:01:49;33.20;46.40
51811;DHT22;52468;40.116;18.296;2023-06-14T10:04:20;33.20;46.50
51811;DHT22;52468;40.116;18.296;2023-06-14T10:06:51;33.50;46.30
51811;DHT22;52468;40.116;18.296;2023-06-14T10:09:20;33.50;45.70
51811;DHT22;52468;40.116;18.296;2023-06-14T10:11:50;33.60;45.50
51811;DHT22;52468;40.116;18.296;2023-06-14T10:14:18;33.70;45.50
51811;DHT22;52468;40.116;18.296;2023-06-14T10:17:07;33.60;45.40
51811;DHT22;52468;40.116;18.296;2023-06-14T10:19:48;33.10;46.40
51811;DHT22;52468;40.116;18.296;2023-06-14T10:22:29;32.70;47.70
51811;DHT22;52468;40.116;18.296;2023-06-14T10:24:57;32.70;47.70
51811;DHT22;52468;40.116;18.296;2023-06-14T10:27:25;32.80;48.00
51811;DHT22;52468;40.116;18.296;2023-06-14T10:32:21;33.40;46.50
51811;DHT22;52468;40.116;18.296;2023-06-14T10:35:05;33.50;46.20
51811;DHT22;52468;40.116;18.296;2023-06-14T10:37:34;33.80;45.70
51811;DHT22;52468;40.116;18.296;2023-06-14T10:40:03;33.80;45.30
51811;DHT22;52468;40.116;18.296;2023-06-14T10:42:32;33.80;45.20
51811;DHT22;52468;40.116;18.296;2023-06-14T10:45:01;33.70;45.70
51811;DHT22;52468;40.116;18.296;2023-06-14T10:47:32;33.80;45.60
51811;DHT22;52468;40.116;18.296;2023-06-14T10:52:38;33.50;45.90
51811;DHT22;52468;40.116;18.296;2023-06-14T10:55:11;33.20;46.90
51811;DHT22;52468;40.116;18.296;2023-06-14T11:00:19;32.50;48.60
51811;DHT22;52468;40.116;18.296;2023-06-14T11:11:09;32.80;46.80
51811;DHT22;52468;40.116;18.296;2023-06-14T11:13:42;33.20;46.50
51811;DHT22;52468;40.116;18.296;2023-06-14T11:16:14;33.60;45.10
51811;DHT22;52468;40.116;18.296;2023-06-14T11:18:44;33.90;44.70
51811;DHT22;52468;40.116;18.296;2023-06-14T11:21:16;33.70;44.80
51811;DHT22;52468;40.116;18.296;2023-06-14T11:23:51;33.70;44.30
51811;DHT22;52468;40.116;18.296;2023-06-14T11:28:58;33.90;42.50
51811;DHT22;52468;40.116;18.296;2023-06-14T11:31:28;34.40;41.70
51811;DHT22;52468;40.116;18.296;2023-06-14T11:33:57;34.70;40.70
51811;DHT22;52468;40.116;18.296;2023-06-14T11:36:29;34.60;41.10
51811;DHT22;52468;40.116;18.296;2023-06-14T11:38:59;34.80;41.00
51811;DHT22;52468;40.116;18.296;2023-06-14T11:41:33;34.80;41.00
51811;DHT22;52468;40.116;18.296;2023-06-14T11:44:02;35.00;40.30
51811;DHT22;52468;40.116;18.296;2023-06-14T11:46:30;35.10;39.60
51811;DHT22;52468;40.116;18.296;2023-06-14T11:48:58;35.10;39.40
51811;DHT22;52468;40.116;18.296;2023-06-14T11:51:26;35.50;38.40
51811;DHT22;52468;40.116;18.296;2023-06-14T11:53:54;35.60;38.50
51811;DHT22;52468;40.116;18.296;2023-06-14T11:56:22;35.50;39.40
51811;DHT22;52468;40.116;18.296;2023-06-14T11:58:50;35.30;40.20
51811;DHT22;52468;40.116;18.296;2023-06-14T12:01:19;35.30;39.80
51811;DHT22;52468;40.116;18.296;2023-06-14T12:03:52;35.40;39.20
51811;DHT22;52468;40.116;18.296;2023-06-14T12:06:28;35.30;39.90
51811;DHT22;52468;40.116;18.296;2023-06-14T12:08:56;35.00;40.70
51811;DHT22;52468;40.116;18.296;2023-06-14T12:11:32;34.90;40.40
51811;DHT22;52468;40.116;18.296;2023-06-14T12:14:02;34.60;41.00
51811;DHT22;52468;40.116;18.296;2023-06-14T12:16:32;34.90;41.10
51811;DHT22;52468;40.116;18.296;2023-06-14T12:19:08;34.90;40.30
51811;DHT22;52468;40.116;18.296;2023-06-14T12:24:08;35.30;39.50
51811;DHT22;52468;40.116;18.296;2023-06-14T12:26:38;35.50;38.70
51811;DHT22;52468;40.116;18.296;2023-06-14T12:31:37;36.30;37.80
51811;DHT22;52468;40.116;18.296;2023-06-14T12:44:05;39.10;33.20
51811;DHT22;52468;40.116;18.296;2023-06-14T12:46:33;38.00;34.90
51811;DHT22;52468;40.116;18.296;2023-06-14T12:53:58;38.00;35.20
51811;DHT22;52468;40.116;18.296;2023-06-14T12:56:26;37.40;36.20
51811;DHT22;52468;40.116;18.296;2023-06-14T12:58:54;38.00;35.80
51811;DHT22;52468;40.116;18.296;2023-06-14T13:03:50;40.40;31.90
51811;DHT22;52468;40.116;18.296;2023-06-14T13:06:21;40.00;32.40
51811;DHT22;52468;40.116;18.296;2023-06-14T13:08:52;40.60;31.30
51811;DHT22;52468;40.116;18.296;2023-06-14T13:13:50;43.20;28.80
51811;DHT22;52468;40.116;18.296;2023-06-14T13:16:18;42.40;28.50
51811;DHT22;52468;40.116;18.296;2023-06-14T13:18:46;40.70;30.80
51811;DHT22;52468;40.116;18.296;2023-06-14T13:21:14;40.10;32.00
51811;DHT22;52468;40.116;18.296;2023-06-14T13:23:42;40.90;31.50
51811;DHT22;52468;40.116;18.296;2023-06-14T13:26:10;40.50;31.60
51811;DHT22;52468;40.116;18.296;2023-06-14T13:28:38;40.10;32.30
51811;DHT22;52468;40.116;18.296;2023-06-14T13:31:06;41.60;30.50
51811;DHT22;52468;40.116;18.296;2023-06-14T13:33:33;42.80;28.80
51811;DHT22;52468;40.116;18.296;2023-06-14T13:36:02;42.10;29.40
51811;DHT22;52468;40.116;18.296;2023-06-14T13:38:30;41.90;29.70
51811;DHT22;52468;40.116;18.296;2023-06-14T13:40:58;42.90;28.50
51811;DHT22;52468;40.116;18.296;2023-06-14T13:43:25;43.00;27.80
51811;DHT22;52468;40.116;18.296;2023-06-14T13:45:54;42.30;28.90
51811;DHT22;52468;40.116;18.296;2023-06-14T13:48:22;42.50;28.60
51811;DHT22;52468;40.116;18.296;2023-06-14T13:50:49;41.80;29.30
51811;DHT22;52468;40.116;18.296;2023-06-14T13:53:17;41.10;30.70
51811;DHT22;52468;40.116;18.296;2023-06-14T13:55:45;42.40;29.00
51811;DHT22;52468;40.116;18.296;2023-06-14T13:58:13;42.70;28.40
51811;DHT22;52468;40.116;18.296;2023-06-14T14:00:42;42.10;29.60
51811;DHT22;52468;40.116;18.296;2023-06-14T14:03:10;41.10;30.60
51811;DHT22;52468;40.116;18.296;2023-06-14T14:05:38;39.20;32.90
51811;DHT22;52468;40.116;18.296;2023-06-14T14:08:06;38.10;35.10
51811;DHT22;52468;40.116;18.296;2023-06-14T14:10:34;39.80;33.10
51811;DHT22;52468;40.116;18.296;2023-06-14T14:13:02;41.40;30.40
51811;DHT22;52468;40.116;18.296;2023-06-14T14:15:30;41.00;30.70
51811;DHT22;52468;40.116;18.296;2023-06-14T14:17:58;39.80;32.10
51811;DHT22;52468;40.116;18.296;2023-06-14T14:20:30;40.00;32.30
51811;DHT22;52468;40.116;18.296;2023-06-14T14:22:58;41.00;31.20
51811;DHT22;52468;40.116;18.296;2023-06-14T14:25:26;41.30;30.30
51811;DHT22;52468;40.116;18.296;2023-06-14T14:27:54;41.00;31.30
51811;DHT22;52468;40.116;18.296;2023-06-14T14:30:22;41.20;31.00
51811;DHT22;52468;40.116;18.296;2023-06-14T14:32:51;40.50;31.20
51811;DHT22;52468;40.116;18.296;2023-06-14T14:35:20;38.90;33.10
51811;DHT22;52468;40.116;18.296;2023-06-14T14:37:49;37.50;35.80
51811;DHT22;52468;40.116;18.296;2023-06-14T14:40:16;36.20;38.00
51811;DHT22;52468;40.116;18.296;2023-06-14T14:42:44;35.40;39.90
51811;DHT22;52468;40.116;18.296;2023-06-14T14:45:12;35.80;39.00
51811;DHT22;52468;40.116;18.296;2023-06-14T14:47:40;37.50;36.50
51811;DHT22;52468;40.116;18.296;2023-06-14T14:50:09;39.50;33.60
51811;DHT22;52468;40.116;18.296;2023-06-14T14:52:38;41.60;29.70
51811;DHT22;52468;40.116;18.296;2023-06-14T14:55:07;42.60;28.60
51811;DHT22;52468;40.116;18.296;2023-06-14T14:57:35;43.30;27.70
51811;DHT22;52468;40.116;18.296;2023-06-14T15:00:05;42.80;28.10
51811;DHT22;52468;40.116;18.296;2023-06-14T15:02:33;41.40;29.90
51811;DHT22;52468;40.116;18.296;2023-06-14T15:05:01;39.90;31.90
51811;DHT22;52468;40.116;18.296;2023-06-14T15:07:30;38.50;33.70
51811;DHT22;52468;40.116;18.296;2023-06-14T15:10:02;37.60;35.50
51811;DHT22;52468;40.116;18.296;2023-06-14T15:12:31;37.30;35.90
51811;DHT22;52468;40.116;18.296;2023-06-14T15:14:59;36.60;37.00
51811;DHT22;52468;40.116;18.296;2023-06-14T15:17:27;36.30;37.50
51811;DHT22;52468;40.116;18.296;2023-06-14T15:19:56;35.60;38.50
51811;DHT22;52468;40.116;18.296;2023-06-14T15:22:24;34.80;40.10
51811;DHT22;52468;40.116;18.296;2023-06-14T15:24:52;34.20;41.80
51811;DHT22;52468;40.116;18.296;2023-06-14T15:27:20;33.70;43.00
51811;DHT22;52468;40.116;18.296;2023-06-14T15:29:48;33.60;43.20
51811;DHT22;52468;40.116;18.296;2023-06-14T15:32:17;33.50;43.40
51811;DHT22;52468;40.116;18.296;2023-06-14T15:34:45;33.20;44.20
51811;DHT22;52468;40.116;18.296;2023-06-14T15:37:13;33.20;44.50
51811;DHT22;52468;40.116;18.296;2023-06-14T15:39:41;33.00;45.00
51811;DHT22;52468;40.116;18.296;2023-06-14T15:42:09;32.80;45.30
51811;DHT22;52468;40.116;18.296;2023-06-14T15:44:37;32.80;45.60
51811;DHT22;52468;40.116;18.296;2023-06-14T15:47:05;32.90;45.30
51811;DHT22;52468;40.116;18.296;2023-06-14T15:49:33;33.20;44.70
51811;DHT22;52468;40.116;18.296;2023-06-14T15:52:01;33.50;44.20
51811;DHT22;52468;40.116;18.296;2023-06-14T15:54:29;33.50;44.20
51811;DHT22;52468;40.116;18.296;2023-06-14T15:56:57;33.20;44.40
51811;DHT22;52468;40.116;18.296;2023-06-14T15:59:24;32.70;45.10
51811;DHT22;52468;40.116;18.296;2023-06-14T16:01:55;32.50;46.00
51811;DHT22;52468;40.116;18.296;2023-06-14T16:04:23;32.30;46.80
51811;DHT22;52468;40.116;18.296;2023-06-14T16:06:51;32.30;47.30
51811;DHT22;52468;40.116;18.296;2023-06-14T16:09:21;32.20;47.60
51811;DHT22;52468;40.116;18.296;2023-06-14T16:11:49;32.00;47.10
51811;DHT22;52468;40.116;18.296;2023-06-14T16:14:17;31.90;47.40